• Join FlightAware (Why Join?)
  • Login
  • US Flag GB Flag 
23:04 EDT


 

Airport Tracker/Info


-or-


 

Live Flight TrackerFlight Track Log ✈ SWA3213 ✈ 08-Mar-2013 ✈ KBWI - KMCO

Flight Track Log - Related Links

Times and Time Zones

All times are in EST time to prevent confusion due to time zone crossing. See the SWA3213 flight status page for this flight to view local times or setup timezone preferences in your user account.

Time Position Orientation Groundspeed Altitude Reporting Facility
EST Latitude Longitude Course Direction KTS MPH feet Rate Location/Type
21:00 39.1667 -76.7333 180° South 176 203 2,000  Level Potomac TRACON
21:01 39.1167 -76.7333 180° South 273 314 4,800 2,040 Climbing Potomac TRACON
21:03 38.9964 -76.6333 147° Southeast 282 325 8,100 1,980 Climbing Washington Center
21:04 38.9219 -76.5628 144° Southeast 288 331 10,800 2,700 Climbing Washington Center
21:05 38.8264 -76.5322 166° South 331 381 13,600 1,620 Climbing Washington Center
21:06 38.7256 -76.6056 210° Southwest 343 395 14,100 1,800 Climbing Washington Center
21:07 38.6269 -76.6786 210° Southwest 378 435 17,300 2,760 Climbing Washington Center
21:08 38.5161 -76.7219 197° South 400 460 19,700 2,040 Climbing Washington Center
21:09 38.3850 -76.7017 173° South 437 503 21,400 1,920 Climbing Washington Center
21:10 38.2453 -76.6836 174° South 471 542 23,600 2,100 Climbing Washington Center
21:11 38.1039 -76.6658 174° South 500 575 25,600 1,800 Climbing Washington Center
21:12 37.9558 -76.6478 175° South 522 601 27,300 1,560 Climbing Washington Center
21:13 37.8056 -76.6642 185° South 534 615 28,800 1,800 Climbing Washington Center
21:14 37.6572 -76.6831 186° South 539 620 30,900 1,980 Climbing Washington Center
21:15 37.5089 -76.7019 186° South 539 620 32,800 1,920 Climbing Washington Center
21:16 37.3647 -76.7417 192° South 539 620 34,800 1,920 Climbing Washington Center
21:17 37.2306 -76.7969 198° South 525 604 36,700 1,560 Climbing Washington Center
21:18 37.1008 -76.8547 200° South 514 592 38,000 600 Climbing Washington Center
21:19 36.9728 -76.9100 199° South 501 577 38,000  Level Washington Center
21:20 36.8450 -76.9622 198° South 496 571 38,000  Level Washington Center
21:21 36.7131 -77.0144 198° South 496 571 38,000  Level Washington Center
21:22 36.5850 -77.0689 199° South 491 565 38,000  Level Washington Center
21:23 36.4592 -77.1208 198° South 486 559 38,000  Level Washington Center
21:24 36.3314 -77.1725 198° South 486 559 38,000  Level Washington Center
21:25 36.1992 -77.2239 197° South 486 559 38,000  Level Washington Center
21:26 36.0775 -77.2753 199° South 479 551 38,000  Level Washington Center
21:27 35.9472 -77.3289 198° South 479 551 38,000  Level Washington Center
21:28 35.8172 -77.3775 197° South 486 559 38,000  Level Washington Center
21:29 35.6872 -77.4308 198° South 486 559 38,000  Level Washington Center
21:30 35.5592 -77.4814 198° South 486 559 38,000  Level Washington Center
21:31 35.4289 -77.5319 198° South 486 559 38,000  Level Washington Center
21:32 35.3169 -77.6131 211° Southwest 478 550 38,000  Level Washington Center
21:33 35.2214 -77.7125 220° Southwest 461 531 38,000  Level Washington Center
21:34 35.1256 -77.8117 220° Southwest 456 525 38,000  Level Washington Center
21:35 35.0297 -77.9103 220° Southwest 456 525 38,000  Level Washington Center
21:36 34.9342 -78.0064 220° Southwest 456 525 38,000  Level Washington Center
21:37 34.8403 -78.1047 221° Southwest 461 531 38,000  Level Washington Center
21:38 34.7483 -78.2031 221° Southwest 456 525 38,000  Level Washington Center
21:40 34.5956 -78.3578 220° Southwest 444 511 38,000  Level Jacksonville Center
21:41 34.4947 -78.4539 218° Southwest 444 511 38,000  Level Jacksonville Center
21:42 34.4122 -78.5436 222° Southwest 439 505 38,000  Level Jacksonville Center
21:43 34.3156 -78.6389 219° Southwest 446 513 38,000  Level Jacksonville Center
21:44 34.2228 -78.7339 220° Southwest 446 513 38,000  Level Jacksonville Center
21:45 34.1297 -78.8261 219° Southwest 446 513 38,000  Level Jacksonville Center
21:46 34.0328 -78.9233 220° Southwest 446 513 38,000  Level Jacksonville Center
21:47 33.9375 -79.0153 219° Southwest 446 513 38,000  Level Jacksonville Center
21:48 33.8425 -79.1119 220° Southwest 446 513 38,000  Level Jacksonville Center
21:49 33.7492 -79.2033 219° Southwest 446 513 38,000  Level Jacksonville Center
21:50 33.6578 -79.2944 220° Southwest 440 506 38,000  Level Jacksonville Center
21:51 33.5625 -79.3906 220° Southwest 440 506 38,000  Level Jacksonville Center
21:52 33.4628 -79.4842 218° Southwest 445 512 38,000  Level Jacksonville Center
21:53 33.3672 -79.5775 219° Southwest 445 512 38,000  Level Jacksonville Center
21:54 33.2650 -79.6656 216° Southwest 450 518 38,000  Level Jacksonville Center
21:55 33.1586 -79.7514 214° Southwest 456 525 38,000  Level Jacksonville Center
21:56 33.0583 -79.8292 213° Southwest 456 525 38,000  Level Jacksonville Center
21:57 32.9519 -79.9144 214° Southwest 456 525 38,000  Level Jacksonville Center
21:58 32.8494 -79.9969 214° Southwest 456 525 38,000  Level Jacksonville Center
21:59 32.7367 -80.0872 214° Southwest 456 525 38,000  Level Jacksonville Center
22:00 32.6319 -80.1669 213° Southwest 456 525 38,000  Level Jacksonville Center
22:01 32.5292 -80.2464 213° Southwest 456 525 38,000  Level Jacksonville Center
22:02 32.4244 -80.3306 214° Southwest 456 525 38,000  Level Jacksonville Center
22:03 32.3239 -80.4094 214° Southwest 451 519 38,000  Level Jacksonville Center
22:04 32.2211 -80.4908 214° Southwest 445 512 38,000  Level Jacksonville Center
22:05 32.1244 -80.5694 215° Southwest 435 501 38,000  Level Jacksonville Center
22:06 32.0336 -80.6381 213° Southwest 434 499 38,000  Level Jacksonville Center
22:07 31.9478 -80.7428 226° Southwest 416 479 38,000  Level Jacksonville Center
22:08 31.8786 -80.8472 232° Southwest 409 471 38,000  Level Jacksonville Center
22:09 31.8089 -80.9344 227° Southwest 409 471 38,000  Level Jacksonville Center
22:10 31.6675 -80.9667 191° South 437 503 38,000  Level Jacksonville Center
22:11 31.5489 -80.9886 189° South 475 547 38,000  Level Jacksonville Center
22:12 31.4072 -81.0158 189° South 481 554 38,000  Level Jacksonville Center
22:13 31.2928 -81.0400 190° South 481 554 38,000  Level Jacksonville Center
22:14 31.1636 -81.0619 188° South 481 554 38,000  Level Jacksonville Center
22:15 31.0367 -81.0839 188° South 476 548 38,000  Level Jacksonville Center
22:16 30.9094 -81.1056 188° South 466 536 38,000 -480 Level Jacksonville Center
22:17 30.7867 -81.1272 189° South 461 531 37,100 -1,800 Descending Jacksonville Center
22:18 30.6639 -81.1514 190° South 461 531 34,400 -1,560 Descending Jacksonville Center
22:19 30.5281 -81.1539 181° South 471 542 34,000 -360 Descending Jacksonville Center
22:20 30.3944 -81.1489 178° South 477 549 33,700 -660 Descending Jacksonville Center
22:21 30.2567 -81.1419 178° South 482 555 32,700 -1,020 Descending Jacksonville Center
22:22 30.1189 -81.1397 179° South 487 560 31,700 -960 Descending Jacksonville Center
22:23 29.9831 -81.1372 179° South 493 567 30,800 -1,620 Descending Jacksonville Center
22:24 29.8453 -81.1325 178° South 493 567 28,500 -2,460 Descending Jacksonville Center
22:25 29.7136 -81.1278 178° South 487 560 25,900 -2,580 Descending Jacksonville Center
22:26 29.5861 -81.1231 178° South 475 547 23,400 -2,400 Descending Jacksonville Center
22:27 29.4608 -81.1253 181° South 461 531 21,200 -2,340 Descending Jacksonville Center
22:28 29.3356 -81.1156 176° South 456 525 18,800 -2,460 Descending Jacksonville Center
22:29 29.2122 -81.1058 176° South 456 525 16,300 -2,640 Descending Jacksonville Center
22:30 29.0933 -81.1008 178° South 451 519 13,600 -2,220 Descending Jacksonville Center
22:31 28.9783 -81.0864 174° South 433 498 12,000 -1,320 Descending Jacksonville Center
22:32 28.8739 -81.0883 181° South 404 465 11,000 -960 Descending Jacksonville Center
22:33 28.7742 -81.1089 190° South 379 436 10,100 -960 Descending Jacksonville Center
22:34 28.6908 -81.1269 191° South 344 396 9,100 -600 Descending Jacksonville Center
22:35 28.6097 -81.1450 191° South 316 364 9,000 -180 Descending Jacksonville Center
22:36 28.5347 -81.1606 190° South 292 336 8,800 -660 Descending Jacksonville Center
22:37 28.4681 -81.1733 190° South 272 313 7,700 -1,200 Descending Jacksonville Center
22:38 28.4017 -81.1889 192° South 251 289 6,400 -1,200 Descending Jacksonville Center
22:40 28.4294 -81.3090 180° South  Level Estimated
22:42 28.3333 -81.3000 336° Northwest 144 166 1,700  Level Orlando TRACON
22:44 28.3833 -81.3000 360° North 126 145 500 -660 Descending Orlando TRACON
22:46 28.4167 -81.3000 336° Northwest  Level FlightAware Approximate
22:47 28.4294 -81.3090 336° Northwest  Level Estimated
22:53 28.4294 -81.3090 336° Northwest  Level Estimated
22:54 28.4294 -81.3090 336° Northwest  Level Estimated
22:55 28.4294 -81.3090 336° Northwest  Level Estimated
22:56 28.4294 -81.3090 336° Northwest  Level Estimated